createdAt,value
2019-01-02T00:00:01.230Z,36.82
2019-01-02T00:01:01.230Z,36.91
2019-01-02T00:02:01.235Z,35.96
2019-01-02T00:03:01.244Z,35.87
2019-01-02T00:04:01.257Z,35.49
2019-01-02T00:05:01.261Z,35.30
2019-01-02T00:06:01.270Z,35.21
2019-01-02T00:07:01.278Z,34.74
2019-01-02T00:08:01.289Z,35.11
2019-01-02T00:09:01.295Z,34.83
2019-01-02T00:10:01.305Z,34.07
2019-01-02T00:11:01.313Z,34.26
2019-01-02T00:12:01.320Z,33.60
2019-01-02T00:13:01.331Z,33.69
2019-01-02T00:14:01.353Z,32.65
2019-01-02T00:15:01.353Z,32.46
2019-01-02T00:16:01.362Z,32.75
2019-01-02T00:17:01.362Z,33.41
2019-01-02T00:18:01.370Z,33.41
2019-01-02T00:19:01.390Z,31.99
2019-01-02T00:20:01.387Z,30.38
2019-01-02T00:21:01.398Z,29.34
2019-01-02T00:22:01.405Z,29.24
2019-01-02T00:23:01.412Z,29.91
2019-01-02T00:24:01.423Z,30.47
2019-01-02T00:25:01.428Z,30.47
2019-01-02T00:26:01.436Z,30.29
2019-01-02T00:27:01.445Z,30.00
2019-01-02T00:28:01.452Z,29.24
2019-01-02T00:29:01.462Z,28.02
2019-01-02T00:30:01.471Z,27.92
2019-01-02T00:31:01.476Z,28.49
2019-01-02T00:32:01.486Z,27.54
2019-01-02T00:33:01.498Z,27.26
2019-01-02T00:34:01.502Z,27.26
2019-01-02T00:35:01.509Z,27.64
2019-01-02T00:36:01.516Z,28.58
2019-01-02T00:37:01.527Z,29.81
2019-01-02T00:38:01.536Z,30.57
2019-01-02T00:39:01.539Z,31.04
2019-01-02T00:40:01.550Z,31.33
2019-01-02T00:41:01.556Z,31.80
2019-01-02T00:42:01.567Z,31.90
2019-01-02T00:43:01.573Z,31.52
2019-01-02T00:44:01.582Z,30.47
2019-01-02T00:45:01.591Z,30.29
2019-01-02T00:46:01.597Z,30.76
2019-01-02T00:47:01.604Z,31.23
2019-01-02T00:48:01.614Z,30.85
2019-01-02T00:49:01.624Z,30.95
2019-01-02T00:50:01.629Z,31.90
2019-01-02T00:51:01.638Z,32.09
2019-01-02T00:52:01.647Z,32.18
2019-01-02T00:53:01.688Z,32.28
2019-01-02T00:54:01.664Z,33.69
2019-01-02T00:55:01.674Z,32.28
2019-01-02T00:56:02.311Z,33.79
2019-01-02T00:57:01.687Z,35.95
2019-01-02T00:58:01.694Z,38.22
2019-01-02T00:59:01.701Z,37.18
2019-01-02T01:00:01.717Z,35.00
2019-01-02T01:01:01.717Z,34.44
2019-01-02T01:02:01.724Z,34.63
2019-01-02T01:03:01.735Z,38.22
2019-01-02T01:04:01.744Z,40.49
2019-01-02T01:05:01.748Z,40.39
2019-01-02T01:06:01.760Z,39.54
2019-01-02T01:07:01.764Z,38.79
2019-01-02T01:08:01.774Z,37.93
2019-01-02T01:09:01.796Z,36.71
2019-01-02T01:10:01.794Z,35.57
2019-01-02T01:11:01.797Z,34.81
2019-01-02T01:12:01.805Z,34.06
2019-01-02T01:13:01.813Z,33.01
2019-01-02T01:14:01.824Z,31.98
2019-01-02T01:15:01.829Z,31.42
2019-01-02T01:16:01.836Z,31.90
2019-01-02T01:17:01.843Z,31.90
2019-01-02T01:18:01.853Z,32.37
2019-01-02T01:19:01.860Z,33.60
2019-01-02T01:20:01.920Z,32.75
2019-01-02T01:21:01.876Z,32.46
2019-01-02T01:22:01.882Z,32.37
2019-01-02T01:23:01.890Z,32.75
2019-01-02T01:24:01.898Z,32.84
2019-01-02T01:25:01.906Z,32.84
2019-01-02T01:26:02.260Z,33.03
2019-01-02T01:27:01.921Z,33.12
2019-01-02T01:28:01.933Z,33.50
2019-01-02T01:29:01.936Z,34.07
2019-01-02T01:30:01.946Z,33.41
2019-01-02T01:31:01.960Z,34.91
2019-01-02T01:32:01.962Z,38.12
2019-01-02T01:33:01.974Z,39.26
2019-01-02T01:34:01.975Z,38.41
2019-01-02T01:35:01.988Z,37.74
2019-01-02T01:36:01.996Z,37.74
2019-01-02T01:37:01.998Z,36.61
2019-01-02T01:38:02.008Z,35.85
2019-01-02T01:39:02.020Z,36.90
2019-01-02T01:40:02.027Z,40.49
2019-01-02T01:41:02.028Z,40.11
2019-01-02T01:42:02.041Z,38.31
2019-01-02T01:43:02.050Z,37.55
2019-01-02T01:44:02.054Z,36.61
2019-01-02T01:45:02.063Z,36.33
2019-01-02T01:46:02.071Z,35.85
2019-01-02T01:47:02.079Z,35.57
2019-01-02T01:48:02.092Z,35.95
2019-01-02T01:49:02.094Z,35.66
2019-01-02T01:50:02.101Z,35.95
2019-01-02T01:51:02.107Z,36.42
2019-01-02T01:52:02.116Z,36.99
2019-01-02T01:53:02.122Z,38.03
2019-01-02T01:54:02.129Z,38.41
2019-01-02T01:55:02.137Z,38.79
2019-01-02T01:56:02.147Z,38.79
2019-01-02T01:57:02.153Z,39.17
2019-01-02T01:58:02.161Z,39.92
2019-01-02T01:59:02.169Z,40.49
2019-01-02T02:00:02.175Z,41.34
2019-01-02T02:01:02.184Z,41.72
2019-01-02T02:02:02.190Z,42.85
2019-01-02T02:03:02.198Z,43.04
2019-01-02T02:04:02.205Z,43.99
2019-01-02T02:05:02.213Z,44.06
2019-01-02T02:06:02.221Z,43.68
2019-01-02T02:07:02.227Z,44.44
2019-01-02T02:08:02.237Z,45.76
2019-01-02T02:09:02.243Z,46.42
2019-01-02T02:10:02.249Z,46.33
2019-01-02T02:11:02.256Z,46.61
2019-01-02T02:12:02.266Z,47.09
2019-01-02T02:13:02.270Z,47.37
2019-01-02T02:14:02.279Z,47.94
2019-01-02T02:15:02.291Z,48.69
2019-01-02T02:16:02.294Z,49.26
2019-01-02T02:17:02.302Z,51.15
2019-01-02T02:18:02.310Z,51.88
2019-01-02T02:19:02.334Z,51.22
2019-01-02T02:20:02.324Z,51.41
2019-01-02T02:21:02.327Z,52.73
2019-01-02T02:22:02.336Z,53.49
2019-01-02T02:23:02.348Z,53.58
2019-01-02T02:24:02.392Z,53.87
2019-01-02T02:25:02.358Z,53.87
2019-01-02T02:26:02.364Z,53.77
2019-01-02T02:27:02.372Z,53.39
2019-01-02T02:28:02.379Z,54.15
2019-01-02T02:29:02.385Z,54.15
2019-01-02T02:30:02.393Z,52.36
2019-01-02T02:31:02.397Z,51.32
2019-01-02T02:32:02.405Z,51.69
2019-01-02T02:33:02.414Z,51.22
2019-01-02T02:34:02.416Z,51.69
2019-01-02T02:35:02.424Z,52.36
2019-01-02T02:36:02.429Z,51.98
2019-01-02T02:37:02.435Z,51.50
2019-01-02T02:38:02.442Z,51.88
2019-01-02T02:39:02.450Z,51.03
2019-01-02T02:40:02.457Z,50.84
2019-01-02T02:41:02.462Z,51.03
2019-01-02T02:42:02.470Z,51.13
2019-01-02T02:43:02.476Z,52.26
2019-01-02T02:44:02.483Z,52.26
2019-01-02T02:45:02.489Z,52.73
2019-01-02T02:46:02.496Z,53.30
2019-01-02T02:47:02.505Z,52.92
2019-01-02T02:48:02.510Z,53.39
2019-01-02T02:49:02.514Z,53.96
2019-01-02T02:50:02.522Z,54.34
2019-01-02T02:51:02.529Z,53.96
2019-01-02T02:52:02.539Z,54.25
2019-01-02T02:53:02.539Z,54.62
2019-01-02T02:54:02.545Z,55.10
2019-01-02T02:55:02.552Z,56.04
2019-01-02T02:56:02.560Z,56.13
2019-01-02T02:57:02.562Z,55.66
2019-01-02T02:58:02.571Z,55.47
2019-01-02T02:59:02.578Z,54.72
2019-01-02T03:00:02.584Z,54.06
2019-01-02T03:01:02.589Z,54.53
2019-01-02T03:02:02.597Z,54.34
2019-01-02T03:03:02.601Z,54.53
2019-01-02T03:04:02.608Z,54.53
2019-01-02T03:05:02.614Z,55.29
2019-01-02T03:06:02.622Z,55.94
2019-01-02T03:07:02.633Z,56.61
2019-01-02T03:08:02.635Z,56.89
2019-01-02T03:09:02.639Z,57.27
2019-01-02T03:10:02.647Z,57.93
2019-01-02T03:11:02.653Z,58.59
2019-01-02T03:12:02.661Z,58.59
2019-01-02T03:13:02.666Z,58.84
2019-01-02T03:14:02.671Z,61.87
2019-01-02T03:15:02.679Z,62.62
2019-01-02T03:16:02.684Z,63.19
2019-01-02T03:17:02.689Z,63.48
2019-01-02T03:18:02.699Z,62.81
2019-01-02T03:19:02.702Z,64.61
2019-01-02T03:20:02.708Z,66.31
2019-01-02T03:21:02.714Z,66.22
2019-01-02T03:22:02.720Z,66.12
2019-01-02T03:23:02.725Z,65.46
2019-01-02T03:24:02.731Z,66.22
2019-01-02T03:25:02.740Z,66.03
2019-01-02T03:26:02.746Z,66.12
2019-01-02T03:27:02.749Z,66.22
2019-01-02T03:28:02.755Z,66.31
2019-01-02T03:29:02.763Z,67.35
2019-01-02T03:30:02.769Z,68.29
2019-01-02T03:31:02.775Z,68.48
2019-01-02T03:32:02.781Z,68.20
2019-01-02T03:33:02.784Z,68.01
2019-01-02T03:34:02.792Z,67.72
2019-01-02T03:35:02.796Z,68.48
2019-01-02T03:36:02.801Z,69.43
2019-01-02T03:37:02.808Z,71.22
2019-01-02T03:38:02.816Z,71.66
2019-01-02T03:39:02.821Z,71.94
2019-01-02T03:40:02.826Z,71.84
2019-01-02T03:41:02.830Z,72.41
2019-01-02T03:42:02.842Z,73.74
2019-01-02T03:43:02.843Z,72.98
2019-01-02T03:44:02.851Z,72.41
2019-01-02T03:45:02.855Z,71.94
2019-01-02T03:46:02.860Z,71.37
2019-01-02T03:47:02.865Z,71.28
2019-01-02T03:48:02.871Z,71.37
2019-01-02T03:49:02.876Z,71.28
2019-01-02T03:50:02.882Z,71.09
2019-01-02T03:51:02.890Z,71.19
2019-01-02T03:52:02.892Z,71.19
2019-01-02T03:53:02.898Z,71.56
2019-01-02T03:54:02.902Z,71.19
2019-01-02T03:55:02.908Z,70.24
2019-01-02T03:56:02.914Z,70.43
2019-01-02T03:57:02.919Z,70.05
2019-01-02T03:58:02.924Z,69.24
2019-01-02T03:59:02.929Z,69.39
2019-01-02T04:00:02.934Z,68.73
2019-01-02T04:01:02.941Z,67.97
2019-01-02T04:02:02.945Z,67.41
2019-01-02T04:03:02.953Z,67.13
2019-01-02T04:04:02.956Z,66.94
2019-01-02T04:05:02.961Z,67.22
2019-01-02T04:06:02.966Z,66.94
2019-01-02T04:07:02.974Z,66.94
2019-01-02T04:08:02.978Z,66.84
2019-01-02T04:09:02.982Z,66.75
2019-01-02T04:10:02.988Z,67.03
2019-01-02T04:11:02.992Z,66.28
2019-01-02T04:12:02.998Z,66.28
2019-01-02T04:13:03.003Z,66.47
2019-01-02T04:14:03.010Z,66.75
2019-01-02T04:15:03.018Z,67.03
2019-01-02T04:16:03.024Z,66.65
2019-01-02T04:17:03.029Z,66.65
2019-01-02T04:18:03.031Z,66.94
2019-01-02T04:19:03.036Z,66.47
2019-01-02T04:20:03.041Z,65.99
2019-01-02T04:21:03.049Z,65.90
2019-01-02T04:22:03.053Z,66.37
2019-01-02T04:23:03.055Z,67.13
2019-01-02T04:24:03.064Z,66.84
2019-01-02T04:25:03.066Z,66.47
2019-01-02T04:26:03.073Z,67.13
2019-01-02T04:27:03.074Z,66.18
2019-01-02T04:28:03.082Z,65.14
2019-01-02T04:29:03.086Z,64.95
2019-01-02T04:30:03.090Z,65.23
2019-01-02T04:31:03.095Z,65.42
2019-01-02T04:32:03.105Z,65.23
2019-01-02T04:33:03.105Z,65.33
2019-01-02T04:34:03.113Z,65.14
2019-01-02T04:35:03.116Z,64.95
2019-01-02T04:36:03.123Z,65.33
2019-01-02T04:37:03.129Z,65.52
2019-01-02T04:38:03.132Z,65.61
2019-01-02T04:39:03.136Z,66.47
2019-01-02T04:40:03.150Z,67.32
2019-01-02T04:41:03.149Z,67.32
2019-01-02T04:42:03.154Z,68.26
2019-01-02T04:43:03.159Z,68.26
2019-01-02T04:44:03.165Z,67.79
2019-01-02T04:45:03.171Z,67.69
2019-01-02T04:46:03.174Z,67.88
2019-01-02T04:47:03.179Z,67.50
2019-01-02T04:48:03.182Z,67.50
2019-01-02T04:49:03.187Z,67.03
2019-01-02T04:50:03.195Z,67.69
2019-01-02T04:51:03.199Z,67.97
2019-01-02T04:52:03.203Z,68.35
2019-01-02T04:53:03.209Z,68.16
2019-01-02T04:54:03.213Z,68.07
2019-01-02T04:55:03.222Z,68.07
2019-01-02T04:56:03.512Z,67.69
2019-01-02T04:57:03.228Z,67.88
2019-01-02T04:58:03.233Z,68.07
2019-01-02T04:59:03.240Z,68.44
2019-01-02T05:00:03.247Z,68.16
2019-01-02T05:01:03.252Z,67.60
2019-01-02T05:02:03.254Z,67.32
2019-01-02T05:03:03.260Z,66.94
2019-01-02T05:04:03.274Z,67.79
2019-01-02T05:05:03.268Z,67.69
2019-01-02T05:06:03.274Z,68.07
2019-01-02T05:07:03.281Z,68.07
2019-01-02T05:08:03.286Z,67.50
2019-01-02T05:09:03.291Z,67.41
2019-01-02T05:10:03.296Z,67.41
2019-01-02T05:11:03.303Z,67.41
2019-01-02T05:12:03.310Z,67.97
2019-01-02T05:13:03.344Z,67.03
2019-01-02T05:14:03.314Z,68.26
2019-01-02T05:15:03.321Z,68.63
2019-01-02T05:16:03.326Z,67.50
2019-01-02T05:17:03.329Z,67.88
2019-01-02T05:18:03.338Z,67.79
2019-01-02T05:19:03.353Z,67.50
2019-01-02T05:20:03.344Z,67.69
2019-01-02T05:21:03.350Z,68.26
2019-01-02T05:22:03.366Z,68.54
2019-01-02T05:23:03.358Z,69.20
2019-01-02T05:24:03.365Z,69.20
2019-01-02T05:25:03.370Z,69.86
2019-01-02T05:26:03.374Z,70.72
2019-01-02T05:27:03.381Z,70.53
2019-01-02T05:28:03.387Z,70.53
2019-01-02T05:29:03.390Z,70.62
2019-01-02T05:30:03.394Z,70.53
2019-01-02T05:31:03.402Z,70.34
2019-01-02T05:32:03.408Z,70.05
2019-01-02T05:33:03.413Z,70.53
2019-01-02T05:34:03.414Z,69.86
2019-01-02T05:35:03.420Z,69.96
2019-01-02T05:36:03.425Z,69.49
2019-01-02T05:37:03.429Z,69.86
2019-01-02T05:38:03.437Z,70.34
2019-01-02T05:39:03.438Z,70.90
2019-01-02T05:40:03.444Z,71.00
2019-01-02T05:41:03.448Z,71.56
2019-01-02T05:42:03.454Z,71.75
2019-01-02T05:43:03.458Z,71.84
2019-01-02T05:44:03.467Z,71.00
2019-01-02T05:45:03.466Z,70.53
2019-01-02T05:46:03.473Z,70.05
2019-01-02T05:47:03.476Z,70.05
2019-01-02T05:48:03.481Z,69.49
2019-01-02T05:49:03.484Z,70.15
2019-01-02T05:50:03.491Z,69.77
2019-01-02T05:51:03.495Z,69.39
2019-01-02T05:52:03.505Z,69.30
2019-01-02T05:53:03.505Z,68.44
2019-01-02T05:54:03.510Z,67.88
2019-01-02T05:55:03.514Z,67.88
2019-01-02T05:56:03.519Z,67.69
2019-01-02T05:57:03.523Z,67.32
2019-01-02T05:58:03.530Z,67.41
2019-01-02T05:59:03.532Z,67.60
2019-01-02T06:00:03.539Z,68.44
2019-01-02T06:01:03.543Z,69.20
2019-01-02T06:02:03.549Z,69.01
2019-01-02T06:03:03.556Z,69.30
2019-01-02T06:04:03.560Z,69.01
2019-01-02T06:05:03.569Z,69.58
2019-01-02T06:06:03.567Z,69.77
2019-01-02T06:07:03.573Z,69.77
2019-01-02T06:08:03.576Z,69.30
2019-01-02T06:09:03.583Z,67.88
2019-01-02T06:10:03.587Z,67.41
2019-01-02T06:11:03.593Z,67.41
2019-01-02T06:12:03.596Z,67.69
2019-01-02T06:13:03.602Z,67.88
2019-01-02T06:14:03.605Z,68.26
2019-01-02T06:15:03.610Z,68.82
2019-01-02T06:16:03.615Z,69.20
2019-01-02T06:17:03.621Z,69.58
2019-01-02T06:18:03.627Z,69.96
2019-01-02T06:19:03.630Z,70.05
2019-01-02T06:20:03.633Z,70.53
2019-01-02T06:21:03.640Z,70.90
2019-01-02T06:22:03.645Z,71.09
2019-01-02T06:23:03.649Z,71.75
2019-01-02T06:24:03.656Z,71.09
2019-01-02T06:25:03.663Z,71.75
2019-01-02T06:26:03.662Z,70.72
2019-01-02T06:27:03.669Z,70.43
2019-01-02T06:28:03.673Z,70.72
2019-01-02T06:29:03.677Z,70.72
2019-01-02T06:30:03.681Z,71.28
2019-01-02T06:31:03.688Z,71.00
2019-01-02T06:32:03.695Z,70.62
2019-01-02T06:33:03.695Z,70.15
2019-01-02T06:34:03.702Z,70.24
2019-01-02T06:35:03.707Z,70.53
2019-01-02T06:36:03.714Z,71.28
2019-01-02T06:37:03.716Z,71.09
2019-01-02T06:38:03.718Z,70.24
2019-01-02T06:39:03.728Z,69.77
2019-01-02T06:40:03.734Z,69.49
2019-01-02T06:41:03.736Z,69.96
2019-01-02T06:42:03.738Z,69.86
2019-01-02T06:43:03.743Z,70.34
2019-01-02T06:44:03.751Z,70.15
2019-01-02T06:45:03.753Z,70.34
2019-01-02T06:46:03.797Z,70.15
2019-01-02T06:47:03.762Z,70.81
2019-01-02T06:48:03.768Z,70.05
2019-01-02T06:49:03.770Z,69.58
2019-01-02T06:50:03.777Z,69.11
2019-01-02T06:51:03.780Z,68.63
2019-01-02T06:52:03.784Z,68.44
2019-01-02T06:53:03.788Z,68.63
2019-01-02T06:54:03.792Z,68.92
2019-01-02T06:55:03.805Z,68.35
2019-01-02T06:56:03.802Z,68.54
2019-01-02T06:57:03.805Z,67.97
2019-01-02T06:58:03.810Z,68.26
2019-01-02T06:59:03.817Z,68.54
2019-01-02T07:00:03.821Z,68.54
2019-01-02T07:01:03.824Z,68.44
2019-01-02T07:02:03.829Z,68.92
2019-01-02T07:03:03.833Z,68.35
2019-01-02T07:04:03.843Z,68.16
2019-01-02T07:05:03.841Z,67.60
2019-01-02T07:06:03.846Z,67.13
2019-01-02T07:07:03.851Z,67.13
2019-01-02T07:08:03.856Z,67.22
2019-01-02T07:09:03.873Z,67.13
2019-01-02T07:10:03.866Z,67.88
2019-01-02T07:11:03.869Z,67.60
2019-01-02T07:12:03.876Z,67.69
2019-01-02T07:13:03.878Z,67.41
2019-01-02T07:14:03.884Z,67.69
2019-01-02T07:15:03.886Z,68.07
2019-01-02T07:16:03.892Z,68.26
2019-01-02T07:17:03.895Z,68.35
2019-01-02T07:18:03.901Z,68.26
2019-01-02T07:19:03.904Z,68.26
2019-01-02T07:20:03.909Z,68.16
2019-01-02T07:21:03.912Z,67.60
2019-01-02T07:22:03.917Z,67.13
2019-01-02T07:23:03.924Z,67.22
2019-01-02T07:24:03.928Z,67.50
2019-01-02T07:25:03.932Z,67.79
2019-01-02T07:26:03.934Z,67.69
2019-01-02T07:27:03.941Z,67.88
2019-01-02T07:28:03.952Z,67.22
2019-01-02T07:29:03.952Z,67.69
2019-01-02T07:30:03.954Z,67.41
2019-01-02T07:31:03.961Z,67.50
2019-01-02T07:32:03.965Z,67.41
2019-01-02T07:33:03.968Z,67.60
2019-01-02T07:34:03.974Z,68.16
2019-01-02T07:35:03.978Z,68.82
2019-01-02T07:36:03.985Z,69.58
2019-01-02T07:37:03.985Z,69.49
2019-01-02T07:38:04.002Z,69.77
2019-01-02T07:39:03.997Z,70.15
2019-01-02T07:40:04.004Z,70.05
2019-01-02T07:41:04.007Z,70.15
2019-01-02T07:42:04.017Z,70.72
2019-01-02T07:43:04.022Z,70.62
2019-01-02T07:44:04.022Z,71.09
2019-01-02T07:45:04.026Z,71.19
2019-01-02T07:46:04.060Z,71.19
2019-01-02T07:47:04.033Z,71.09
2019-01-02T07:48:04.041Z,71.09
2019-01-02T07:49:04.046Z,71.37
2019-01-02T07:50:04.049Z,70.90
2019-01-02T07:51:04.057Z,70.53
2019-01-02T07:52:04.059Z,70.81
2019-01-02T07:53:04.063Z,71.00
2019-01-02T07:54:04.065Z,71.19
2019-01-02T07:55:04.070Z,70.72
2019-01-02T07:56:04.078Z,70.62
2019-01-02T07:57:04.078Z,70.72
2019-01-02T07:58:04.083Z,71.47
2019-01-02T07:59:04.095Z,72.32
2019-01-02T08:00:04.096Z,72.51
2019-01-02T08:01:04.094Z,72.79
2019-01-02T08:02:04.100Z,72.41
2019-01-02T08:03:04.105Z,72.88
2019-01-02T08:04:04.109Z,72.88
2019-01-02T08:05:04.118Z,72.79
2019-01-02T08:06:04.116Z,72.79
2019-01-02T08:07:04.122Z,72.69
2019-01-02T08:08:04.128Z,73.17
2019-01-02T08:09:04.132Z,72.79
2019-01-02T08:10:04.134Z,73.74
2019-01-02T08:11:04.140Z,73.55
2019-01-02T08:12:04.147Z,73.83
2019-01-02T08:13:04.148Z,74.11
2019-01-02T08:14:04.152Z,74.77
2019-01-02T08:15:04.156Z,74.40
2019-01-02T08:16:04.161Z,74.58
2019-01-02T08:17:04.168Z,74.87
2019-01-02T08:18:04.168Z,75.24
2019-01-02T08:19:04.172Z,75.05
2019-01-02T08:20:04.225Z,74.96
2019-01-02T08:21:04.181Z,75.34
2019-01-02T08:22:04.186Z,75.81
2019-01-02T08:23:04.199Z,76.00
2019-01-02T08:24:04.195Z,76.28
2019-01-02T08:25:04.198Z,76.76
2019-01-02T08:26:04.205Z,76.85
2019-01-02T08:27:04.209Z,76.85
2019-01-02T08:28:04.213Z,77.13
2019-01-02T08:29:04.216Z,77.89
2019-01-02T08:30:04.219Z,78.74
2019-01-02T08:31:04.224Z,77.98
2019-01-02T08:32:04.232Z,78.83
2019-01-02T08:33:04.233Z,77.80
2019-01-02T08:34:04.239Z,78.27
2019-01-02T08:35:04.240Z,77.98
2019-01-02T08:36:04.247Z,78.36
2019-01-02T08:37:04.249Z,78.64
2019-01-02T08:38:04.253Z,77.80
2019-01-02T08:39:04.262Z,78.55
2019-01-02T08:40:04.265Z,77.61
2019-01-02T08:41:04.267Z,76.57
2019-01-02T08:42:04.281Z,77.13
2019-01-02T08:43:04.279Z,77.32
2019-01-02T08:44:04.280Z,77.32
2019-01-02T08:45:04.283Z,77.13
2019-01-02T08:46:04.289Z,77.80
2019-01-02T08:47:04.296Z,77.23
2019-01-02T08:48:04.296Z,76.95
2019-01-02T08:49:04.302Z,76.66
2019-01-02T08:50:04.308Z,77.56
2019-01-02T08:51:04.312Z,78.42
2019-01-02T08:52:04.313Z,78.98
2019-01-02T08:53:04.320Z,79.36
2019-01-02T08:54:04.322Z,80.21
2019-01-02T08:55:04.329Z,80.02
2019-01-02T08:56:04.333Z,79.93
2019-01-02T08:57:04.336Z,79.74
2019-01-02T08:58:04.339Z,79.74
2019-01-02T08:59:04.345Z,78.98
2019-01-02T09:00:04.351Z,78.45
2019-01-02T09:01:04.357Z,78.17
2019-01-02T09:02:04.361Z,77.51
2019-01-02T09:03:04.359Z,77.51
2019-01-02T09:04:04.367Z,76.95
2019-01-02T09:05:04.370Z,76.38
2019-01-02T09:06:04.378Z,75.71
2019-01-02T09:07:04.381Z,75.71
2019-01-02T09:08:04.386Z,75.71
2019-01-02T09:09:04.386Z,75.62
2019-01-02T09:10:04.391Z,74.96
2019-01-02T09:11:04.395Z,75.71
2019-01-02T09:12:04.404Z,78.02
2019-01-02T09:13:04.403Z,75.95
2019-01-02T09:14:04.416Z,70.75
2019-01-02T09:15:04.415Z,69.62
2019-01-02T09:16:04.435Z,69.77
2019-01-02T09:17:04.421Z,70.94
2019-01-02T09:18:04.427Z,71.22
2019-01-02T09:19:04.432Z,70.75
2019-01-02T09:20:04.437Z,70.28
2019-01-02T09:21:04.445Z,71.31
2019-01-02T09:22:04.445Z,71.50
2019-01-02T09:23:04.453Z,69.62
2019-01-02T09:24:04.457Z,69.05
2019-01-02T09:25:04.459Z,67.00
2019-01-02T09:26:04.463Z,66.91
2019-01-02T09:27:04.468Z,66.69
2019-01-02T09:28:04.478Z,65.65
2019-01-02T09:29:04.480Z,65.17
2019-01-02T09:30:04.488Z,64.70
2019-01-02T09:31:04.492Z,65.17
2019-01-02T09:32:04.495Z,65.55
2019-01-02T09:33:04.498Z,65.84
2019-01-02T09:34:04.504Z,66.22
2019-01-02T09:35:04.508Z,66.82
2019-01-02T09:36:04.550Z,67.95
2019-01-02T09:37:04.521Z,67.19
2019-01-02T09:38:04.528Z,67.63
2019-01-02T09:39:04.530Z,67.91
2019-01-02T09:40:04.534Z,68.67
2019-01-02T09:41:04.537Z,70.31
2019-01-02T09:42:04.544Z,69.84
2019-01-02T09:43:04.550Z,69.18
2019-01-02T09:44:04.553Z,67.95
2019-01-02T09:45:04.560Z,67.76
2019-01-02T09:46:04.566Z,67.85
2019-01-02T09:47:04.571Z,68.90
2019-01-02T09:48:04.674Z,67.98
2019-01-02T09:49:04.577Z,66.16
2019-01-02T09:50:04.599Z,64.77
2019-01-02T09:51:04.593Z,65.34
2019-01-02T09:52:04.594Z,64.20
2019-01-02T09:53:04.601Z,65.24
2019-01-02T09:54:04.609Z,64.11
2019-01-02T09:55:04.611Z,64.96
2019-01-02T09:56:04.617Z,64.86
2019-01-02T09:57:04.625Z,64.77
2019-01-02T09:58:04.630Z,64.96
2019-01-02T09:59:05.322Z,63.92
2019-01-02T10:00:04.640Z,63.64
2019-01-02T10:01:04.644Z,63.64
2019-01-02T10:02:04.652Z,62.31
2019-01-02T10:03:04.658Z,62.75
2019-01-02T10:04:04.713Z,62.85
2019-01-02T10:05:04.668Z,63.70
2019-01-02T10:06:04.674Z,65.21
2019-01-02T10:07:04.680Z,64.96
2019-01-02T10:08:04.687Z,63.57
2019-01-02T10:09:04.692Z,61.02
2019-01-02T10:10:04.698Z,59.31
2019-01-02T10:11:04.705Z,58.53
2019-01-02T10:12:04.711Z,58.44
2019-01-02T10:13:04.715Z,58.28
2019-01-02T10:14:04.722Z,58.84
2019-01-02T10:15:04.727Z,57.73
2019-01-02T10:16:04.735Z,56.91
2019-01-02T10:17:04.738Z,55.77
2019-01-02T10:18:04.748Z,54.26
2019-01-02T10:19:04.753Z,52.25
2019-01-02T10:20:04.760Z,53.57
2019-01-02T10:21:04.765Z,54.04
2019-01-02T10:22:04.779Z,54.71
2019-01-02T10:23:04.780Z,53.57
2019-01-02T10:24:04.787Z,53.76
2019-01-02T10:25:04.796Z,54.52
2019-01-02T10:26:04.799Z,53.45
2019-01-02T10:27:04.809Z,55.34
2019-01-02T10:28:04.814Z,57.99
2019-01-02T10:29:04.823Z,56.32
2019-01-02T10:30:04.833Z,55.84
2019-01-02T10:31:04.836Z,55.56
2019-01-02T10:32:04.846Z,55.91
2019-01-02T10:33:04.851Z,55.79
2019-01-02T10:34:04.858Z,57.61
2019-01-02T10:35:04.868Z,56.85
2019-01-02T10:36:04.876Z,56.38
2019-01-02T10:37:04.884Z,56.76
2019-01-02T10:38:04.889Z,58.18
2019-01-02T10:39:04.898Z,57.71
2019-01-02T10:40:04.904Z,58.28
2019-01-02T10:41:04.909Z,57.45
2019-01-02T10:42:04.918Z,56.38
2019-01-02T10:43:04.928Z,56.29
2019-01-02T10:44:04.933Z,57.83
2019-01-02T10:45:04.941Z,56.22
2019-01-02T10:46:04.950Z,53.95
2019-01-02T10:47:04.956Z,53.38
2019-01-02T10:48:04.963Z,53.97
2019-01-02T10:49:04.973Z,53.13
2019-01-02T10:50:04.978Z,51.99
2019-01-02T10:51:04.987Z,51.04
2019-01-02T10:52:04.993Z,52.65
2019-01-02T10:53:05.002Z,53.50
2019-01-02T10:54:05.012Z,52.46
2019-01-02T10:55:05.020Z,53.09
2019-01-02T10:56:05.028Z,53.85
2019-01-02T10:57:05.036Z,55.40
2019-01-02T10:58:05.042Z,55.96
2019-01-02T10:59:05.049Z,53.97
2019-01-02T11:00:05.061Z,51.61
2019-01-02T11:01:05.069Z,52.34
2019-01-02T11:02:05.074Z,52.69
2019-01-02T11:03:05.092Z,54.77
2019-01-02T11:04:05.089Z,54.39
2019-01-02T11:05:05.098Z,54.68
2019-01-02T11:06:05.113Z,52.44
2019-01-02T11:07:05.114Z,50.54
2019-01-02T11:08:05.122Z,49.69
2019-01-02T11:09:05.129Z,49.69
2019-01-02T11:10:05.139Z,50.26
2019-01-02T11:11:05.147Z,48.20
2019-01-02T11:12:05.156Z,46.21
2019-01-02T11:13:05.160Z,43.37
2019-01-02T11:14:05.172Z,42.92
2019-01-02T11:15:05.179Z,41.40
2019-01-02T11:16:05.192Z,40.55
2019-01-02T11:17:05.194Z,40.17
2019-01-02T11:18:05.207Z,40.93
2019-01-02T11:19:05.212Z,40.79
2019-01-02T11:20:05.222Z,41.93
2019-01-02T11:21:05.230Z,43.16
2019-01-02T11:22:05.240Z,43.35
2019-01-02T11:23:05.295Z,42.78
2019-01-02T11:24:05.255Z,43.04
2019-01-02T11:25:05.267Z,43.33
2019-01-02T11:26:05.273Z,44.29
2019-01-02T11:27:05.290Z,44.18
2019-01-02T11:28:05.293Z,44.56
2019-01-02T11:29:05.299Z,46.55
2019-01-02T11:30:05.305Z,47.23
2019-01-02T11:31:05.323Z,49.31
2019-01-02T11:32:05.327Z,52.53
2019-01-02T11:33:05.331Z,54.45
2019-01-02T11:34:05.346Z,51.80
2019-01-02T11:35:05.352Z,51.54
2019-01-02T11:36:05.356Z,50.15
2019-01-02T11:37:05.367Z,48.91
2019-01-02T11:38:05.377Z,48.34
2019-01-02T11:39:05.382Z,48.72
2019-01-02T11:40:05.392Z,47.30
2019-01-02T11:41:05.403Z,47.49
2019-01-02T11:42:05.412Z,45.88
2019-01-02T11:43:05.423Z,47.11
2019-01-02T11:44:05.427Z,48.49
2019-01-02T11:45:05.437Z,49.38
2019-01-02T11:46:05.446Z,51.46
2019-01-02T11:47:05.455Z,51.75
2019-01-02T11:48:05.466Z,50.35
2019-01-02T11:49:05.517Z,48.18
2019-01-02T11:50:05.482Z,48.84
2019-01-02T11:51:05.490Z,49.60
2019-01-02T11:52:05.503Z,51.30
2019-01-02T11:53:05.510Z,51.68
2019-01-02T11:54:05.519Z,52.50
2019-01-02T11:55:05.526Z,51.65
2019-01-02T11:56:05.534Z,51.65
2019-01-02T11:57:05.543Z,51.75
2019-01-02T11:58:05.552Z,53.38
2019-01-02T11:59:05.561Z,51.96
2019-01-02T12:00:05.577Z,49.76
2019-01-02T12:01:05.578Z,49.22
2019-01-02T12:02:05.588Z,45.72
2019-01-02T12:03:05.596Z,46.69
2019-01-02T12:04:05.605Z,45.26
2019-01-02T12:05:05.615Z,42.71
2019-01-02T12:06:05.621Z,42.92
2019-01-02T12:07:05.632Z,43.11
2019-01-02T12:08:05.640Z,42.25
2019-01-02T12:09:05.650Z,43.58
2019-01-02T12:10:05.657Z,45.29
2019-01-02T12:11:05.668Z,46.90
2019-01-02T12:12:05.674Z,48.03
2019-01-02T12:13:07.029Z,48.89
2019-01-02T12:14:05.694Z,47.18
2019-01-02T12:15:05.706Z,47.77
2019-01-02T12:16:05.714Z,46.45
2019-01-02T12:17:05.721Z,45.38
2019-01-02T12:18:05.731Z,46.31
2019-01-02T12:19:05.740Z,48.22
2019-01-02T12:20:05.748Z,47.75
2019-01-02T12:21:05.757Z,47.47
2019-01-02T12:22:05.771Z,46.97
2019-01-02T12:23:05.778Z,48.27
2019-01-02T12:24:05.788Z,48.77
2019-01-02T12:25:05.797Z,49.33
2019-01-02T12:26:05.862Z,50.28
2019-01-02T12:27:05.816Z,49.55
2019-01-02T12:28:05.829Z,48.70
2019-01-02T12:29:05.834Z,47.91
2019-01-02T12:30:05.846Z,48.68
2019-01-02T12:31:05.854Z,49.52
2019-01-02T12:32:05.866Z,49.55
2019-01-02T12:33:06.815Z,48.22
2019-01-02T12:34:05.883Z,47.75
2019-01-02T12:35:05.895Z,47.85
2019-01-02T12:36:05.902Z,47.94
2019-01-02T12:37:05.911Z,48.08
2019-01-02T12:38:05.922Z,49.31
2019-01-02T12:39:05.961Z,50.73
2019-01-02T12:40:05.942Z,49.69
2019-01-02T12:41:05.950Z,49.52
2019-01-02T12:42:05.962Z,48.68
2019-01-02T12:43:06.025Z,48.32
2019-01-02T12:44:05.978Z,48.01
2019-01-02T12:45:05.989Z,48.58
2019-01-02T12:46:05.999Z,49.27
2019-01-02T12:47:06.011Z,48.98
2019-01-02T12:48:06.021Z,47.85
2019-01-02T12:49:06.034Z,48.10
2019-01-02T12:50:06.037Z,48.65
2019-01-02T12:51:06.098Z,51.56
2019-01-02T12:52:06.058Z,52.60